Time;durP1;ratioP1;P1;durP2;ratioP2;P2;SDS_P1;SDS_P2;PMS_P1;PMS_P2;Temp;Humidity;BMP_temperature;BMP_pressure;BME280_temperature;BME280_humidity;BME280_pressure;Samples;Min_cycle;Max_cycle;Signal;HPM_P1;HPM_P2
2022/09/02 00:03:35;;;;;;;2.47;1.92;;;;;;;;;;10442514;28;20037;-76
2022/09/02 00:08:35;;;;;;;4.45;1.88;;;;;;;;;;10423091;28;20056;-78
2022/09/02 00:13:37;;;;;;;2.42;1.60;;;;;;;;;;10422318;28;20522;-76
2022/09/02 00:18:38;;;;;;;1.85;1.70;;;;;;;;;;10413094;28;20044;-77
2022/09/02 00:23:39;;;;;;;2.00;1.80;;;;;;;;;;10420315;28;20030;-75
2022/09/02 00:28:40;;;;;;;3.25;1.92;;;;;;;;;;10417999;28;20045;-78
2022/09/02 00:33:40;;;;;;;3.00;1.83;;;;;;;;;;10415877;28;20063;-76
2022/09/02 00:38:41;;;;;;;2.00;1.70;;;;;;;;;;10396788;28;20037;-77
2022/09/02 00:43:41;;;;;;;4.25;2.03;;;;;;;;;;10405413;28;20037;-77
2022/09/02 00:48:48;;;;;;;1.90;1.60;;;;;;;;;;10411800;28;20049;-77
2022/09/02 00:53:48;;;;;;;4.45;2.25;;;;;;;;;;10401859;28;20067;-77
2022/09/02 00:58:50;;;;;;;2.28;2.08;;;;;;;;;;10424935;28;20128;-77
2022/09/02 01:03:50;;;;;;;3.97;2.15;;;;;;;;;;10424513;28;20029;-77
2022/09/02 01:08:55;;;;;;;2.10;1.90;;;;;;;;;;10415334;28;20030;-78
2022/09/02 01:13:58;;;;;;;2.35;2.00;;;;;;;;;;10400889;28;20086;-77
2022/09/02 01:19:00;;;;;;;2.55;2.35;;;;;;;;;;10413448;28;20811;-76
2022/09/02 01:24:01;;;;;;;3.58;2.33;;;;;;;;;;10444468;28;20056;-78
2022/09/02 01:29:03;;;;;;;2.57;2.00;;;;;;;;;;10438576;28;20485;-76
2022/09/02 01:34:05;;;;;;;3.17;2.25;;;;;;;;;;10409190;28;20034;-76
2022/09/02 01:39:06;;;;;;;2.33;1.92;;;;;;;;;;10394139;28;20041;-76
2022/09/02 01:44:07;;;;;;;2.40;2.20;;;;;;;;;;10426968;28;20071;-77
2022/09/02 01:49:08;;;;;;;2.50;2.30;;;;;;;;;;10414679;28;20037;-76
2022/09/02 01:54:08;;;;;;;2.85;2.50;;;;;;;;;;10416114;28;20036;-75
2022/09/02 01:59:10;;;;;;;3.00;2.20;;;;;;;;;;10410473;28;20047;-76
2022/09/02 02:04:11;;;;;;;2.83;2.28;;;;;;;;;;10413846;28;20706;-79
2022/09/02 02:09:15;;;;;;;2.67;2.47;;;;;;;;;;10403342;28;20100;-77
2022/09/02 02:14:16;;;;;;;3.42;2.80;;;;;;;;;;10393031;28;20045;-78
2022/09/02 02:19:22;;;;;;;2.50;2.30;;;;;;;;;;10406985;28;20081;-78
2022/09/02 02:24:24;;;;;;;3.20;2.60;;;;;;;;;;10407496;28;20026;-77
2022/09/02 02:29:24;;;;;;;2.67;2.47;;;;;;;;;;10404636;28;20081;-80
2022/09/02 02:34:25;;;;;;;3.30;2.75;;;;;;;;;;10442154;28;20703;-79
2022/09/02 02:39:25;;;;;;;4.15;2.90;;;;;;;;;;10435941;28;20472;-77
2022/09/02 02:44:28;;;;;;;2.85;2.45;;;;;;;;;;10433256;28;20052;-78
2022/09/02 02:49:28;;;;;;;3.65;3.10;;;;;;;;;;10423229;28;20041;-77
2022/09/02 02:54:29;;;;;;;3.50;2.90;;;;;;;;;;10416944;28;20696;-75
2022/09/02 02:59:32;;;;;;;;;;;;;;;;;;10430737;28;20037;-77
2022/09/02 03:04:33;;;;;;;3.30;3.00;;;;;;;;;;10427806;28;19921;-76
2022/09/02 03:09:33;;;;;;;3.33;3.03;;;;;;;;;;10419111;28;20038;-76
2022/09/02 03:14:34;;;;;;;3.15;2.90;;;;;;;;;;10441253;28;20049;-75
2022/09/02 03:19:35;;;;;;;3.50;2.95;;;;;;;;;;10449373;28;20456;-78
2022/09/02 03:24:36;;;;;;;3.10;2.90;;;;;;;;;;10428589;28;20132;-77
2022/09/02 03:29:37;;;;;;;2.70;2.50;;;;;;;;;;10443078;28;20054;-76
2022/09/02 03:34:40;;;;;;;2.90;2.60;;;;;;;;;;10464270;28;20032;-79
2022/09/02 03:39:42;;;;;;;3.45;2.72;;;;;;;;;;10461358;28;20043;-81
2022/09/02 03:44:43;;;;;;;2.60;2.40;;;;;;;;;;10454376;28;20389;-78
2022/09/02 03:49:44;;;;;;;4.85;3.00;;;;;;;;;;10418338;28;20120;-79
2022/09/02 03:54:46;;;;;;;3.47;2.65;;;;;;;;;;10407557;28;20050;-78
2022/09/02 03:59:46;;;;;;;3.85;2.80;;;;;;;;;;10414463;28;20084;-77
2022/09/02 04:04:47;;;;;;;3.15;2.85;;;;;;;;;;10417676;28;20141;-76
2022/09/02 04:09:47;;;;;;;3.17;2.83;;;;;;;;;;10419357;28;20053;-76
2022/09/02 04:14:48;;;;;;;3.45;3.15;;;;;;;;;;10415290;28;20037;-77
2022/09/02 04:25:48;;;;;;;3.83;3.45;;;;;;;;;;10403857;28;20033;-76
2022/09/02 04:30:50;;;;;;;3.78;3.20;;;;;;;;;;10417523;28;20068;-78
2022/09/02 04:35:51;;;;;;;5.70;3.70;;;;;;;;;;10406490;28;20468;-77
2022/09/02 04:40:53;;;;;;;4.95;3.70;;;;;;;;;;10415013;28;20041;-76
2022/09/02 04:45:53;;;;;;;5.20;3.38;;;;;;;;;;10416552;28;20472;-77
2022/09/02 04:50:53;;;;;;;5.25;3.38;;;;;;;;;;10416007;28;20064;-77
2022/09/02 04:55:55;;;;;;;5.28;3.63;;;;;;;;;;10418080;28;20041;-76
2022/09/02 05:00:57;;;;;;;4.45;3.60;;;;;;;;;;10396408;28;20037;-77
2022/09/02 05:06:02;;;;;;;4.00;3.60;;;;;;;;;;10419119;28;20481;-79
2022/09/02 05:11:17;;;;;;;4.78;4.10;;;;;;;;;;10417447;28;20045;-78
2022/09/02 05:16:53;;;;;;;4.63;4.10;;;;;;;;;;10419956;28;20045;-77
2022/09/02 05:22:28;;;;;;;6.18;4.15;;;;;;;;;;10408808;28;20049;-79
2022/09/02 05:28:00;;;;;;;4.00;3.55;;;;;;;;;;10418996;28;20432;-80
2022/09/02 05:33:37;;;;;;;5.15;3.90;;;;;;;;;;10432259;28;20116;-78
2022/09/02 05:39:09;;;;;;;6.10;4.95;;;;;;;;;;10433533;28;20103;-78
2022/09/02 05:44:43;;;;;;;5.40;3.80;;;;;;;;;;10413712;28;20048;-78
2022/09/02 05:50:16;;;;;;;3.92;3.53;;;;;;;;;;10422655;28;20534;-77
2022/09/02 05:55:49;;;;;;;3.53;3.17;;;;;;;;;;10408010;28;20037;-77
2022/09/02 06:00:51;;;;;;;6.30;3.60;;;;;;;;;;10416166;28;20033;-75
2022/09/02 06:05:52;;;;;;;3.25;2.63;;;;;;;;;;10395338;28;20038;-76
2022/09/02 06:10:55;;;;;;;3.25;2.67;;;;;;;;;;10565702;23;20496;-78
2022/09/02 06:15:59;;;;;;;2.80;2.47;;;;;;;;;;10403058;28;20105;-75
2022/09/02 06:21:04;;;;;;;2.47;2.20;;;;;;;;;;10389663;28;20393;-75
2022/09/02 06:26:09;;;;;;;3.35;2.72;;;;;;;;;;10391716;28;20045;-77
2022/09/02 06:31:12;;;;;;;3.10;2.38;;;;;;;;;;10376547;28;20141;-73
2022/09/02 06:36:13;;;;;;;;;;;;;;;;;;10393274;28;20392;-72
2022/09/02 06:41:14;;;;;;;2.90;2.17;;;;;;;;;;10390465;28;19935;-72
2022/09/02 06:46:21;;;;;;;2.80;2.25;;;;;;;;;;10402710;28;20655;-74
2022/09/02 06:51:26;;;;;;;2.38;2.15;;;;;;;;;;10395387;28;20056;-73
2022/09/02 06:56:28;;;;;;;3.05;2.08;;;;;;;;;;10397417;28;20076;-73
2022/09/02 07:01:30;;;;;;;4.80;4.35;;;;;;;;;;10392101;28;20072;-73
2022/09/02 07:06:38;;;;;;;3.47;1.98;;;;;;;;;;10371621;28;20486;-74
2022/09/02 07:11:40;;;;;;;2.35;2.15;;;;;;;;;;10397757;28;20961;-72
2022/09/02 07:16:48;;;;;;;2.08;1.65;;;;;;;;;;10378251;28;20034;-73
2022/09/02 07:21:49;;;;;;;3.65;1.85;;;;;;;;;;10384168;28;20042;-72
2022/09/02 07:26:50;;;;;;;2.95;1.92;;;;;;;;;;10384138;28;20037;-73
2022/09/02 07:31:52;;;;;;;1.60;1.50;;;;;;;;;;10382538;28;20446;-73
2022/09/02 07:36:53;;;;;;;2.05;1.85;;;;;;;;;;10387742;28;20040;-73
2022/09/02 07:41:56;;;;;;;2.67;2.10;;;;;;;;;;10387420;28;20087;-72
2022/09/02 07:46:58;;;;;;;2.38;2.00;;;;;;;;;;10392158;28;20045;-72
2022/09/02 07:51:58;;;;;;;1.98;1.83;;;;;;;;;;10396135;28;20079;-73
2022/09/02 07:56:59;;;;;;;2.08;1.80;;;;;;;;;;10388561;28;20038;-72
2022/09/02 08:02:00;;;;;;;2.42;1.73;;;;;;;;;;10398030;28;20056;-72
2022/09/02 08:07:00;;;;;;;3.08;1.95;;;;;;;;;;10390272;28;20065;-73
2022/09/02 08:12:01;;;;;;;6.63;2.00;;;;;;;;;;10382779;28;20045;-75
2022/09/02 08:17:02;;;;;;;2.05;1.60;;;;;;;;;;10392629;28;20141;-73
2022/09/02 08:22:04;;;;;;;2.80;1.70;;;;;;;;;;10386546;28;20557;-72
2022/09/02 08:27:04;;;;;;;2.95;1.50;;;;;;;;;;10393200;28;20445;-73
2022/09/02 08:32:05;;;;;;;2.83;1.70;;;;;;;;;;10398731;28;20052;-73
2022/09/02 08:37:06;;;;;;;1.73;1.50;;;;;;;;;;10385252;28;20296;-74
2022/09/02 08:42:18;;;;;;;2.13;1.60;;;;;;;;;;10384637;28;20563;-73
2022/09/02 08:47:21;;;;;;;2.15;1.60;;;;;;;;;;10386504;28;20046;-74
2022/09/02 08:52:35;;;;;;;3.08;1.60;;;;;;;;;;10380393;28;20450;-73
2022/09/02 08:57:36;;;;;;;1.95;1.52;;;;;;;;;;10383473;28;20037;-73
2022/09/02 09:02:42;;;;;;;3.35;1.70;;;;;;;;;;10391304;28;20380;-72
2022/09/02 09:07:59;;;;;;;1.40;1.30;;;;;;;;;;10390094;28;20524;-73
2022/09/02 09:13:38;;;;;;;2.22;1.48;;;;;;;;;;10382454;28;20263;-73
2022/09/02 09:18:40;;;;;;;1.60;1.30;;;;;;;;;;10393247;28;20095;-74
2022/09/02 09:23:41;;;;;;;6.00;4.23;;;;;;;;;;10393860;28;20111;-73
2022/09/02 09:28:46;;;;;;;1.13;1.02;;;;;;;;;;10375794;28;20437;-74
2022/09/02 09:33:55;;;;;;;1.50;1.23;;;;;;;;;;10382061;28;20037;-73
2022/09/02 09:38:55;;;;;;;2.03;1.30;;;;;;;;;;10387511;28;20117;-74
2022/09/02 09:43:56;;;;;;;2.00;0.93;;;;;;;;;;10390286;28;20060;-72
2022/09/02 09:48:57;;;;;;;1.58;1.20;;;;;;;;;;10393641;28;20050;-74
2022/09/02 09:54:14;;;;;;;1.55;1.00;;;;;;;;;;10402306;28;20029;-73
2022/09/02 09:59:33;;;;;;;2.20;1.10;;;;;;;;;;10388305;28;20099;-74
2022/09/02 10:04:34;;;;;;;2.17;1.20;;;;;;;;;;10376674;28;20367;-73
2022/09/02 10:09:34;;;;;;;1.35;1.20;;;;;;;;;;10383674;28;20057;-75
2022/09/02 10:14:35;;;;;;;1.15;0.90;;;;;;;;;;10375769;28;20131;-74
2022/09/02 10:19:46;;;;;;;1.08;0.90;;;;;;;;;;10382016;28;20041;-74
2022/09/02 10:25:06;;;;;;;1.33;1.00;;;;;;;;;;10373663;28;20221;-74
2022/09/02 10:30:10;;;;;;;7.57;5.90;;;;;;;;;;10387235;28;20228;-74
2022/09/02 10:35:29;;;;;;;1.67;0.90;;;;;;;;;;10388774;28;20030;-75
2022/09/02 10:40:36;;;;;;;1.50;1.10;;;;;;;;;;10382740;28;20120;-74
2022/09/02 10:45:46;;;;;;;1.40;1.30;;;;;;;;;;10389287;28;20037;-74
2022/09/02 10:50:54;;;;;;;2.55;1.20;;;;;;;;;;10378058;28;20576;-74
2022/09/02 10:56:02;;;;;;;2.30;2.10;;;;;;;;;;10405577;28;20076;-73
2022/09/02 11:01:04;;;;;;;1.58;1.10;;;;;;;;;;10389843;28;20041;-75
2022/09/02 11:06:10;;;;;;;16.02;10.60;;;;;;;;;;10392421;28;20038;-75
2022/09/02 11:11:14;;;;;;;2.15;1.27;;;;;;;;;;10395041;28;20065;-74
2022/09/02 11:16:36;;;;;;;2.67;1.30;;;;;;;;;;10402063;28;20042;-75
2022/09/02 11:21:55;;;;;;;1.40;1.17;;;;;;;;;;10400777;28;20026;-74
2022/09/02 11:27:03;;;;;;;2.25;1.08;;;;;;;;;;10380619;28;20034;-77
2022/09/02 11:32:14;;;;;;;2.13;1.30;;;;;;;;;;10397979;28;20541;-73
2022/09/02 11:37:35;;;;;;;2.20;1.40;;;;;;;;;;10385888;28;20461;-74
2022/09/02 11:43:00;;;;;;;1.45;1.30;;;;;;;;;;10383004;28;20557;-75
2022/09/02 11:48:08;;;;;;;2.03;1.30;;;;;;;;;;10390257;28;20121;-74
2022/09/02 11:53:17;;;;;;;1.20;1.10;;;;;;;;;;10385068;28;20049;-74
2022/09/02 11:58:30;;;;;;;1.67;1.58;;;;;;;;;;10389721;28;20037;-74
2022/09/02 12:03:32;;;;;;;2.83;1.40;;;;;;;;;;10401010;28;20410;-74
2022/09/02 12:08:34;;;;;;;1.63;1.27;;;;;;;;;;10393937;28;20451;-73
2022/09/02 12:13:35;;;;;;;;;;;;;;;;;;10396031;28;20058;-74
2022/09/02 12:18:35;;;;;;;2.60;1.25;;;;;;;;;;10383975;28;19941;-78
2022/09/02 12:23:48;;;;;;;1.60;1.23;;;;;;;;;;10405047;28;20046;-79
2022/09/02 12:28:50;;;;;;;3.13;1.30;;;;;;;;;;10365784;28;20045;-76
2022/09/02 12:33:50;;;;;;;1.37;1.20;;;;;;;;;;10396642;28;20049;-78
2022/09/02 12:38:51;;;;;;;2.08;1.58;;;;;;;;;;10383286;28;20478;-78
2022/09/02 12:44:08;;;;;;;1.40;1.00;;;;;;;;;;10394340;28;20060;-77
2022/09/02 12:49:24;;;;;;;2.15;1.10;;;;;;;;;;10397661;28;20304;-78
2022/09/02 12:54:34;;;;;;;1.35;1.10;;;;;;;;;;10386314;28;20404;-78
2022/09/02 12:59:36;;;;;;;1.90;0.90;;;;;;;;;;10386641;28;20026;-79
2022/09/02 13:04:37;;;;;;;;;;;;;;;;;;10385418;28;20506;-77
2022/09/02 13:09:40;;;;;;;0.98;0.88;;;;;;;;;;10399008;28;19925;-77
2022/09/02 13:14:41;;;;;;;1.35;1.00;;;;;;;;;;10378477;28;20030;-78
2022/09/02 13:19:48;;;;;;;1.65;1.20;;;;;;;;;;10393071;28;20047;-77
2022/09/02 13:25:07;;;;;;;2.10;1.10;;;;;;;;;;10395423;28;20128;-77
2022/09/02 13:30:11;;;;;;;1.63;0.88;;;;;;;;;;10377423;28;20084;-77
2022/09/02 13:35:19;;;;;;;1.50;1.15;;;;;;;;;;10413250;28;20133;-78
2022/09/02 13:40:27;;;;;;;1.70;1.00;;;;;;;;;;10395650;28;20067;-78
2022/09/02 13:45:36;;;;;;;1.15;1.00;;;;;;;;;;10389957;28;20045;-77
2022/09/02 13:50:42;;;;;;;1.10;1.00;;;;;;;;;;10373747;28;20109;-77
2022/09/02 13:55:48;;;;;;;2.58;1.08;;;;;;;;;;10389539;28;20446;-77
2022/09/02 14:00:49;;;;;;;1.55;1.00;;;;;;;;;;10377077;28;20046;-77
2022/09/02 14:05:51;;;;;;;1.67;1.00;;;;;;;;;;10389972;28;20173;-77
2022/09/02 14:10:52;;;;;;;1.50;1.00;;;;;;;;;;10393271;28;20943;-78
2022/09/02 14:15:53;;;;;;;2.83;1.00;;;;;;;;;;10391041;28;20045;-77
2022/09/02 14:20:53;;;;;;;2.10;1.13;;;;;;;;;;10402123;28;20615;-77
2022/09/02 14:25:55;;;;;;;1.00;0.90;;;;;;;;;;10395674;28;20045;-76
2022/09/02 14:30:55;;;;;;;;;;;;;;;;;;10392851;28;20107;-77
2022/09/02 14:36:04;;;;;;;1.20;1.10;;;;;;;;;;10402427;28;19960;-76
2022/09/02 14:41:10;;;;;;;1.75;0.90;;;;;;;;;;10397210;28;20044;-76
2022/09/02 14:46:22;;;;;;;1.92;1.08;;;;;;;;;;10385797;28;20057;-77
2022/09/02 14:51:22;;;;;;;;;;;;;;;;;;10388304;28;20133;-77
2022/09/02 14:56:44;;;;;;;1.17;1.00;;;;;;;;;;10383711;28;19918;-77
2022/09/02 15:01:46;;;;;;;1.95;1.10;;;;;;;;;;10394530;28;20046;-77
2022/09/02 15:06:47;;;;;;;1.67;1.10;;;;;;;;;;10380852;28;20041;-77
2022/09/02 15:11:49;;;;;;;2.10;1.20;;;;;;;;;;10402398;28;20476;-77
2022/09/02 15:16:50;;;;;;;1.08;0.98;;;;;;;;;;10376849;28;20030;-77
2022/09/02 15:21:50;;;;;;;1.75;1.20;;;;;;;;;;10377587;28;20045;-77
2022/09/02 15:26:50;;;;;;;1.77;1.10;;;;;;;;;;10376228;28;20103;-76
2022/09/02 15:31:51;;;;;;;1.67;1.40;;;;;;;;;;10381210;28;20045;-76
2022/09/02 15:36:53;;;;;;;2.33;1.40;;;;;;;;;;10388736;28;20122;-77
2022/09/02 15:41:54;;;;;;;1.33;1.00;;;;;;;;;;10405572;28;20021;-77
2022/09/02 15:46:54;;;;;;;2.25;1.50;;;;;;;;;;10391778;28;20033;-77
2022/09/02 15:51:55;;;;;;;1.92;1.30;;;;;;;;;;10394380;28;20046;-77
2022/09/02 15:56:57;;;;;;;1.73;1.10;;;;;;;;;;10375375;28;20536;-77
2022/09/02 16:01:58;;;;;;;1.20;1.10;;;;;;;;;;10399905;28;20046;-77
2022/09/02 16:06:59;;;;;;;1.73;1.00;;;;;;;;;;10404587;28;20060;-78
2022/09/02 16:12:00;;;;;;;1.20;1.10;;;;;;;;;;10391383;28;20067;-76
2022/09/02 16:17:00;;;;;;;1.30;1.10;;;;;;;;;;10396834;28;20118;-77
2022/09/02 16:22:01;;;;;;;1.47;1.23;;;;;;;;;;10414429;28;20027;-77
2022/09/02 16:27:01;;;;;;;1.83;1.20;;;;;;;;;;10416042;28;20293;-76
2022/09/02 16:32:02;;;;;;;1.92;1.20;;;;;;;;;;10415478;28;20315;-77
2022/09/02 16:37:03;;;;;;;1.85;1.20;;;;;;;;;;10413557;28;20069;-76
2022/09/02 16:42:04;;;;;;;1.70;1.20;;;;;;;;;;10401525;28;20042;-76
2022/09/02 16:47:05;;;;;;;1.67;1.00;;;;;;;;;;10392439;28;20231;-77
2022/09/02 16:52:06;;;;;;;1.58;1.02;;;;;;;;;;10403109;28;20133;-77
2022/09/02 16:57:06;;;;;;;1.30;1.10;;;;;;;;;;10396570;28;20038;-76
2022/09/02 17:02:06;;;;;;;2.20;1.20;;;;;;;;;;10407652;28;20091;-76
2022/09/02 17:07:08;;;;;;;2.00;1.13;;;;;;;;;;10400975;28;20106;-78
2022/09/02 17:12:08;;;;;;;2.97;1.70;;;;;;;;;;10396534;28;20467;-76
2022/09/02 17:17:13;;;;;;;2.17;1.33;;;;;;;;;;10406530;28;20068;-77
2022/09/02 17:22:14;;;;;;;1.75;1.17;;;;;;;;;;10390519;28;20060;-76
2022/09/02 17:27:14;;;;;;;1.42;1.10;;;;;;;;;;10385904;28;20041;-76
2022/09/02 17:32:16;;;;;;;1.27;1.00;;;;;;;;;;10387111;28;20042;-77
2022/09/02 17:37:16;;;;;;;1.40;1.10;;;;;;;;;;10404073;28;20044;-76
2022/09/02 17:42:17;;;;;;;2.08;1.10;;;;;;;;;;10387923;28;20045;-76
2022/09/02 17:47:20;;;;;;;1.20;1.10;;;;;;;;;;10401526;28;20396;-77
2022/09/02 17:52:21;;;;;;;1.33;1.10;;;;;;;;;;10405350;28;20054;-76
2022/09/02 17:57:31;;;;;;;1.25;1.15;;;;;;;;;;10389471;28;20034;-77
2022/09/02 18:02:35;;;;;;;1.20;1.10;;;;;;;;;;10384791;28;20038;-77
2022/09/02 18:08:00;;;;;;;1.92;1.30;;;;;;;;;;10385302;28;20067;-76
2022/09/02 18:13:05;;;;;;;2.30;1.65;;;;;;;;;;10391880;28;20033;-77
2022/09/02 18:18:06;;;;;;;1.73;1.30;;;;;;;;;;10378866;28;20164;-77
2022/09/02 18:23:07;;;;;;;1.67;1.20;;;;;;;;;;10387173;28;20037;-76
2022/09/02 18:28:26;;;;;;;4.60;3.67;;;;;;;;;;10379865;28;20041;-78
2022/09/02 18:33:33;;;;;;;5.32;3.47;;;;;;;;;;10401512;28;20053;-78
2022/09/02 18:38:42;;;;;;;8.32;5.50;;;;;;;;;;10403987;28;20092;-78
2022/09/02 18:44:01;;;;;;;2.90;2.20;;;;;;;;;;10385942;28;20451;-78
2022/09/02 18:49:03;;;;;;;1.55;1.40;;;;;;;;;;10404639;28;20103;-78
2022/09/02 18:54:07;;;;;;;2.95;1.70;;;;;;;;;;10392585;28;20113;-78
2022/09/02 18:59:10;;;;;;;1.33;1.23;;;;;;;;;;10393658;28;20428;-78
2022/09/02 19:04:10;;;;;;;;;;;;;;;;;;10388278;28;20042;-80
2022/09/02 19:09:11;;;;;;;2.17;1.30;;;;;;;;;;10392631;28;19921;-78
2022/09/02 19:14:25;;;;;;;1.90;1.55;;;;;;;;;;10395765;28;20140;-78
2022/09/02 19:19:28;;;;;;;1.60;1.50;;;;;;;;;;10408010;28;20479;-78
2022/09/02 19:24:49;;;;;;;2.20;1.17;;;;;;;;;;10402841;28;20032;-78
2022/09/02 19:29:51;;;;;;;2.33;1.80;;;;;;;;;;10400557;28;20049;-79
2022/09/02 19:34:52;;;;;;;2.42;1.50;;;;;;;;;;10398695;28;20061;-78
2022/09/02 19:39:53;;;;;;;4.22;2.15;;;;;;;;;;10394100;28;20058;-79
2022/09/02 19:44:54;;;;;;;1.67;1.50;;;;;;;;;;10394545;28;20037;-79
2022/09/02 19:49:54;;;;;;;3.33;2.20;;;;;;;;;;10395966;28;20103;-77
2022/09/02 19:54:55;;;;;;;1.80;1.60;;;;;;;;;;10394742;28;20331;-77
2022/09/02 19:59:56;;;;;;;1.98;1.77;;;;;;;;;;10397656;28;20046;-79
2022/09/02 20:04:56;;;;;;;2.70;1.90;;;;;;;;;;10427392;28;20030;-79
2022/09/02 20:09:57;;;;;;;2.08;1.60;;;;;;;;;;10409028;28;20060;-77
2022/09/02 20:14:59;;;;;;;1.80;1.52;;;;;;;;;;10397040;28;20029;-78
2022/09/02 20:20:00;;;;;;;2.67;1.60;;;;;;;;;;10393897;28;20105;-78
2022/09/02 20:25:00;;;;;;;1.50;1.40;;;;;;;;;;10389131;28;20049;-78
2022/09/02 20:30:07;;;;;;;2.83;2.20;;;;;;;;;;10386071;28;20129;-78
2022/09/02 20:35:10;;;;;;;1.70;1.60;;;;;;;;;;10406086;28;20077;-78
2022/09/02 20:40:13;;;;;;;2.63;1.90;;;;;;;;;;10401501;28;20042;-79
2022/09/02 20:45:18;;;;;;;1.70;1.60;;;;;;;;;;10409843;28;20473;-77
2022/09/02 20:50:18;;;;;;;2.15;1.70;;;;;;;;;;10386405;28;20580;-77
2022/09/02 20:55:21;;;;;;;1.83;1.60;;;;;;;;;;10414333;28;20065;-77
2022/09/02 21:00:21;;;;;;;1.50;1.40;;;;;;;;;;10411358;28;20583;-79
2022/09/02 21:05:25;;;;;;;2.10;1.90;;;;;;;;;;10430568;28;20060;-77
2022/09/02 21:10:31;;;;;;;2.17;1.98;;;;;;;;;;10441126;28;20312;-79
2022/09/02 21:15:37;;;;;;;4.10;1.75;;;;;;;;;;10435341;28;20081;-78
2022/09/02 21:20:42;;;;;;;2.03;1.80;;;;;;;;;;10391796;28;20102;-77
2022/09/02 21:25:51;;;;;;;2.58;1.52;;;;;;;;;;10387380;28;20045;-78
2022/09/02 21:30:54;;;;;;;1.77;1.60;;;;;;;;;;10391236;28;20058;-78
2022/09/02 21:35:56;;;;;;;1.85;1.75;;;;;;;;;;10397002;28;20041;-80
2022/09/02 21:40:56;;;;;;;3.03;1.93;;;;;;;;;;10398061;28;20424;-78
2022/09/02 21:46:04;;;;;;;1.67;1.58;;;;;;;;;;10395349;28;20069;-79
2022/09/02 21:51:35;;;;;;;1.52;1.42;;;;;;;;;;10385355;28;20629;-78
2022/09/02 21:56:36;;;;;;;1.85;1.40;;;;;;;;;;10396898;28;20058;-78
2022/09/02 22:01:39;;;;;;;;;;;;;;;;;;10386567;28;20041;-78
2022/09/02 22:06:42;;;;;;;2.65;1.58;;;;;;;;;;10407990;28;19909;-78
2022/09/02 22:11:48;;;;;;;1.63;1.50;;;;;;;;;;10419768;28;20042;-77
2022/09/02 22:16:57;;;;;;;1.58;1.40;;;;;;;;;;10388363;28;20491;-78
2022/09/02 22:22:07;;;;;;;1.73;1.45;;;;;;;;;;10421769;28;20038;-80
2022/09/02 22:27:21;;;;;;;2.20;1.80;;;;;;;;;;10412461;28;20056;-80
2022/09/02 22:32:23;;;;;;;1.83;1.40;;;;;;;;;;10395989;28;20037;-79
2022/09/02 22:37:32;;;;;;;2.03;1.38;;;;;;;;;;10379620;28;20123;-78
2022/09/02 22:42:34;;;;;;;2.58;1.65;;;;;;;;;;10391920;28;20113;-77
2022/09/02 22:52:57;;;;;;;1.90;1.65;;;;;;;;;;10406955;28;20042;-79
2022/09/02 22:58:03;;;;;;;2.35;1.60;;;;;;;;;;10399678;28;20030;-77
2022/09/02 23:03:39;;;;;;;1.40;1.30;;;;;;;;;;10404123;28;20030;-78
2022/09/02 23:08:44;;;;;;;1.73;1.60;;;;;;;;;;10414741;28;20078;-77
2022/09/02 23:13:55;;;;;;;2.05;1.85;;;;;;;;;;10381971;28;20045;-76
2022/09/02 23:19:07;;;;;;;1.80;1.70;;;;;;;;;;10392130;28;20053;-77
2022/09/02 23:24:08;;;;;;;1.90;1.70;;;;;;;;;;10389273;28;20041;-77
2022/09/02 23:29:16;;;;;;;1.70;1.60;;;;;;;;;;10392440;28;20053;-76
2022/09/02 23:34:17;;;;;;;1.40;1.30;;;;;;;;;;10392013;28;20034;-78
2022/09/02 23:39:27;;;;;;;2.10;1.90;;;;;;;;;;10401538;28;20053;-77
2022/09/02 23:44:28;;;;;;;1.92;1.83;;;;;;;;;;10407340;28;20046;-77
2022/09/02 23:49:35;;;;;;;1.70;1.60;;;;;;;;;;10388645;28;20664;-77
2022/09/02 23:54:54;;;;;;;2.05;1.80;;;;;;;;;;10394646;28;20052;-76
2022/09/02 23:59:58;;;;;;;2.40;2.10;;;;;;;;;;10391053;28;20034;-77
